»·PEaware :: N698J KPGD-MYGF

N698J :: KPGD-MYGF

FLIGHT INFORMATION

Flight Status: Arrived
Operator: Privately registered:
United States
More flights under this callsign
Pilot: Ahmad S. (5672)
Aircraft: BEECH AIRCRAFT BARON
(BE58)
More flights by this aircraft type
Origin: KPGD Charlotte Co
United States
Destination: MYGF Grand Bahama Intl
Bahamas
More flights between these airports :: More routes between these airports
Route: LBV V492 PBI BR63V ULAMA
File this flight plan on PilotEdge
Remarks:
Altitude:
(Current/Filed)
5,000ft
Speed:
(Current/Filed)
175kts
Departed: 30-Jan-21 01:36 PM
Arrived: 30-Jan-21 02:38 PM
Distance/Time
Traveled:
178nm/1:02
Distance/Time
To Go:
Arrived

Flight Plot

Page will automatically refresh every two minutes.

Flight plan parsing failed; only flown route is shown


Map Options




Map Legend


Flown Route
Filed Route
Departure Airport
Arrival Airport
Navaid (VOR, NDB)
Fix

Horizontal Profiles

Position Reports

Time Latitude Longitude Heading Altitude Ground
Speed
30-Jan-21 13:18 26.914897 -81.995772 331 25ft 0kts
30-Jan-21 13:20 26.914897 -81.995772 331 25ft 0kts
30-Jan-21 13:21 26.914897 -81.995772 331 25ft 0kts
30-Jan-21 13:22 26.914897 -81.995772 331 25ft 0kts
30-Jan-21 13:23 26.914897 -81.995772 331 25ft 0kts
30-Jan-21 13:24 26.914897 -81.995772 331 25ft 0kts
30-Jan-21 13:25 26.914897 -81.995772 331 25ft 0kts
30-Jan-21 13:27 26.914897 -81.995772 331 25ft 0kts
30-Jan-21 13:30 26.914897 -81.995772 331 25ft 0kts
30-Jan-21 13:31 26.914897 -81.995772 331 25ft 0kts
30-Jan-21 13:33 26.917349 -81.996848 329 23ft 11kts
30-Jan-21 13:34 26.920859 -81.999190 329 22ft 18kts
30-Jan-21 13:35 26.923226 -81.999918 58 24ft 0kts
30-Jan-21 13:36 26.922485 -81.998370 148 22ft 44kts
30-Jan-21 13:37 26.901399 -81.974315 102 1557ft 133kts
30-Jan-21 13:38 26.918806 -81.938120 116 3647ft 141kts
30-Jan-21 13:39 26.905176 -81.892119 109 4899ft 179kts
30-Jan-21 13:40 26.896165 -81.833955 104 4991ft 196kts
30-Jan-21 13:41 26.886591 -81.772775 103 4998ft 198kts
30-Jan-21 13:42 26.877349 -81.711687 104 4939ft 198kts
30-Jan-21 13:43 26.861871 -81.610384 104 4937ft 198kts
30-Jan-21 13:45 26.849453 -81.529366 104 4938ft 198kts
30-Jan-21 13:46 26.840109 -81.468611 104 4937ft 198kts
30-Jan-21 13:46 26.832332 -81.418241 104 4939ft 198kts
30-Jan-21 13:47 26.827132 -81.377977 99 4937ft 199kts
30-Jan-21 13:49 26.821397 -81.284951 98 4938ft 200kts
30-Jan-21 13:50 26.817606 -81.222880 98 4940ft 200kts
30-Jan-21 13:51 26.813602 -81.160789 98 4940ft 200kts
30-Jan-21 13:52 26.809582 -81.098744 98 4939ft 200kts
30-Jan-21 13:53 26.805586 -81.036418 98 4941ft 200kts
30-Jan-21 13:54 26.801519 -80.974183 98 4943ft 200kts
30-Jan-21 13:54 26.798120 -80.922332 98 4942ft 200kts
30-Jan-21 13:56 26.791254 -80.818612 98 4944ft 200kts
30-Jan-21 13:57 26.787098 -80.756364 98 4945ft 201kts
30-Jan-21 13:59 26.771800 -80.665611 117 4947ft 196kts
30-Jan-21 14:00 26.744362 -80.601447 119 4980ft 195kts
30-Jan-21 14:01 26.705434 -80.509918 119 4999ft 195kts
30-Jan-21 14:03 26.680042 -80.412712 95 4998ft 201kts
30-Jan-21 14:04 26.680365 -80.370766 93 5000ft 202kts
30-Jan-21 14:05 26.680136 -80.318521 94 5056ft 201kts
30-Jan-21 14:06 26.680262 -80.255756 93 5079ft 202kts
30-Jan-21 14:07 26.680189 -80.192951 93 5080ft 202kts
30-Jan-21 14:07 26.680113 -80.140490 93 5081ft 202kts
30-Jan-21 14:09 26.679977 -80.056622 93 5080ft 202kts
30-Jan-21 14:12 26.679449 -79.878426 93 5080ft 202kts
30-Jan-21 14:14 26.678960 -79.752546 93 5080ft 202kts
30-Jan-21 14:15 26.678657 -79.689387 93 5080ft 202kts
30-Jan-21 14:16 26.678293 -79.615870 93 5080ft 202kts
30-Jan-21 14:17 26.677986 -79.563457 93 5087ft 202kts
30-Jan-21 14:18 26.677553 -79.489941 93 5090ft 202kts
30-Jan-21 14:18 26.677279 -79.448103 93 5091ft 201kts
30-Jan-21 14:19 26.676851 -79.385663 93 5090ft 200kts
30-Jan-21 14:20 26.676404 -79.323131 93 5082ft 200kts
30-Jan-21 14:21 26.675928 -79.260974 94 5081ft 200kts
30-Jan-21 14:22 26.675416 -79.198443 94 5012ft 202kts
30-Jan-21 14:24 26.674520 -79.094744 94 5000ft 199kts
30-Jan-21 14:25 26.670419 -79.055077 106 4676ft 206kts
30-Jan-21 14:25 26.659014 -79.014184 114 4007ft 206kts
30-Jan-21 14:26 26.640225 -78.954434 112 3003ft 196kts
30-Jan-21 14:28 26.615135 -78.877766 112 2029ft 163kts
30-Jan-21 14:29 26.581844 -78.829196 161 1673ft 128kts
30-Jan-21 14:33 26.526217 -78.769818 88 789ft 107kts
30-Jan-21 14:35 26.546317 -78.720490 67 264ft 85kts
30-Jan-21 14:38 26.557544 -78.694746 221 10ft 18kts
30-Jan-21 14:39 26.553638 -78.698584 222 10ft 28kts
30-Jan-21 14:40 26.549748 -78.702390 224 10ft 0kts
30-Jan-21 14:41 26.549030 -78.701959 141 10ft 12kts
30-Jan-21 14:42 26.548417 -78.702073 234 10ft 0kts
30-Jan-21 14:43 26.548417 -78.702073 234 10ft 0kts
30-Jan-21 14:44 26.548417 -78.702073 234 10ft 0kts
30-Jan-21 14:45 26.548417 -78.702073 234 10ft 0kts
30-Jan-21 14:46 26.548417 -78.702073 234 10ft 0kts
30-Jan-21 14:47 26.548417 -78.702073 234 10ft 0kts
30-Jan-21 14:49 26.548417 -78.702073 234 10ft 0kts
30-Jan-21 14:50 26.548417 -78.702073 234 10ft 0kts
30-Jan-21 14:52 26.548417 -78.702073 234 10ft 0kts
30-Jan-21 14:53 26.548417 -78.702073 234 10ft 0kts

Navigation Log

Ident Type
Flight plan parsing failed, navigation log unavailable